Carol City, Florida
Current Conditions -  °F | °C
As of 2:13 PM on Tuesday 21 Oct 2014 (Local Time) from KOPF Reporting Station
Broken Clouds Broken Clouds  
Wind Chill: 79°   Ceiling: 1500
Heat Index: 82°   Visibility: 10mi
Dew Point: 73°   Wind: 14mph
Humidity: 82%   Direction: 200°SSW
Pressure: 29.94"   Gusts: NA
Location:  25.94°N, 80.25°W
Report Text: KOPF 211813Z 20012KT 10SM BKN015 BKN040 26/23 A2994 RMK AO2 RAE1756 P0000 T02610228
Loading
Personal Weather Stations






























Interactive Weather Map
Tropical Storm Tracking
New forecast layout! Learn more

10-Day Weather Forecast

Advertisements
Track Severe Weather on mobile